sensor_id;sensor_type;location;lat;lon;timestamp;P1;durP1;ratioP1;P2;durP2;ratioP2
70705;SDS011;59320;52.316;10.870;2023-06-10T00:02:08;8.32;;;3.42;;
70705;SDS011;59320;52.316;10.870;2023-06-10T00:04:35;8.43;;;3.15;;
70705;SDS011;59320;52.316;10.870;2023-06-10T00:07:03;6.35;;;3.13;;
70705;SDS011;59320;52.316;10.870;2023-06-10T00:09:33;6.47;;;3.58;;
70705;SDS011;59320;52.316;10.870;2023-06-10T00:12:02;9.75;;;3.45;;
70705;SDS011;59320;52.316;10.870;2023-06-10T00:14:30;6.32;;;3.30;;
70705;SDS011;59320;52.316;10.870;2023-06-10T00:16:57;6.45;;;3.10;;
70705;SDS011;59320;52.316;10.870;2023-06-10T00:19:24;5.00;;;3.28;;
70705;SDS011;59320;52.316;10.870;2023-06-10T00:21:55;8.88;;;4.35;;
70705;SDS011;59320;52.316;10.870;2023-06-10T00:24:22;7.47;;;4.43;;
70705;SDS011;59320;52.316;10.870;2023-06-10T00:26:49;6.78;;;3.60;;
70705;SDS011;59320;52.316;10.870;2023-06-10T00:29:16;9.70;;;4.18;;
70705;SDS011;59320;52.316;10.870;2023-06-10T00:31:45;7.22;;;3.45;;
70705;SDS011;59320;52.316;10.870;2023-06-10T00:34:12;5.80;;;3.78;;
70705;SDS011;59320;52.316;10.870;2023-06-10T00:36:39;8.88;;;4.13;;
70705;SDS011;59320;52.316;10.870;2023-06-10T00:39:06;9.15;;;3.95;;
70705;SDS011;59320;52.316;10.870;2023-06-10T00:41:35;7.72;;;3.85;;
70705;SDS011;59320;52.316;10.870;2023-06-10T00:44:02;5.97;;;3.75;;
70705;SDS011;59320;52.316;10.870;2023-06-10T00:46:30;8.55;;;3.85;;
70705;SDS011;59320;52.316;10.870;2023-06-10T00:49:00;12.50;;;4.25;;
70705;SDS011;59320;52.316;10.870;2023-06-10T00:51:27;8.35;;;3.70;;
70705;SDS011;59320;52.316;10.870;2023-06-10T00:53:54;8.60;;;3.80;;
70705;SDS011;59320;52.316;10.870;2023-06-10T00:56:21;9.52;;;3.92;;
70705;SDS011;59320;52.316;10.870;2023-06-10T00:58:48;8.60;;;4.03;;
70705;SDS011;59320;52.316;10.870;2023-06-10T01:01:16;9.70;;;4.68;;
70705;SDS011;59320;52.316;10.870;2023-06-10T01:03:45;9.27;;;4.50;;
70705;SDS011;59320;52.316;10.870;2023-06-10T01:06:24;11.18;;;4.80;;
70705;SDS011;59320;52.316;10.870;2023-06-10T01:09:05;12.38;;;4.35;;
70705;SDS011;59320;52.316;10.870;2023-06-10T01:11:41;11.00;;;4.45;;
70705;SDS011;59320;52.316;10.870;2023-06-10T01:14:12;8.07;;;3.63;;
70705;SDS011;59320;52.316;10.870;2023-06-10T01:16:40;12.15;;;4.60;;
70705;SDS011;59320;52.316;10.870;2023-06-10T01:19:09;9.65;;;5.03;;
70705;SDS011;59320;52.316;10.870;2023-06-10T01:21:39;12.15;;;4.70;;
70705;SDS011;59320;52.316;10.870;2023-06-10T01:24:07;7.07;;;3.95;;
70705;SDS011;59320;52.316;10.870;2023-06-10T01:26:37;9.93;;;4.50;;
70705;SDS011;59320;52.316;10.870;2023-06-10T01:29:07;6.40;;;4.32;;
70705;SDS011;59320;52.316;10.870;2023-06-10T01:31:40;11.02;;;4.40;;
70705;SDS011;59320;52.316;10.870;2023-06-10T01:34:13;7.50;;;4.45;;
70705;SDS011;59320;52.316;10.870;2023-06-10T01:36:44;9.00;;;4.60;;
70705;SDS011;59320;52.316;10.870;2023-06-10T01:39:14;8.02;;;4.03;;
70705;SDS011;59320;52.316;10.870;2023-06-10T01:41:42;7.45;;;4.35;;
70705;SDS011;59320;52.316;10.870;2023-06-10T01:44:09;7.93;;;4.43;;
70705;SDS011;59320;52.316;10.870;2023-06-10T01:46:38;9.10;;;5.00;;
70705;SDS011;59320;52.316;10.870;2023-06-10T01:49:06;9.55;;;4.57;;
70705;SDS011;59320;52.316;10.870;2023-06-10T01:51:33;14.27;;;4.95;;
70705;SDS011;59320;52.316;10.870;2023-06-10T01:54:01;7.25;;;4.53;;
70705;SDS011;59320;52.316;10.870;2023-06-10T01:56:29;7.97;;;4.20;;
70705;SDS011;59320;52.316;10.870;2023-06-10T01:58:56;9.70;;;4.50;;
70705;SDS011;59320;52.316;10.870;2023-06-10T02:01:24;9.75;;;4.25;;
70705;SDS011;59320;52.316;10.870;2023-06-10T02:03:51;8.85;;;3.90;;
70705;SDS011;59320;52.316;10.870;2023-06-10T02:06:18;7.32;;;4.80;;
70705;SDS011;59320;52.316;10.870;2023-06-10T02:08:46;11.02;;;5.65;;
70705;SDS011;59320;52.316;10.870;2023-06-10T02:11:14;13.02;;;6.68;;
70705;SDS011;59320;52.316;10.870;2023-06-10T02:13:41;15.75;;;7.40;;
70705;SDS011;59320;52.316;10.870;2023-06-10T02:16:09;11.80;;;5.90;;
70705;SDS011;59320;52.316;10.870;2023-06-10T02:18:38;10.00;;;5.20;;
70705;SDS011;59320;52.316;10.870;2023-06-10T02:21:08;8.82;;;4.43;;
70705;SDS011;59320;52.316;10.870;2023-06-10T02:23:35;8.30;;;4.20;;
70705;SDS011;59320;52.316;10.870;2023-06-10T02:26:03;10.27;;;4.85;;
70705;SDS011;59320;52.316;10.870;2023-06-10T02:28:32;8.82;;;4.40;;
70705;SDS011;59320;52.316;10.870;2023-06-10T02:30:59;7.57;;;4.35;;
70705;SDS011;59320;52.316;10.870;2023-06-10T02:33:26;12.73;;;4.80;;
70705;SDS011;59320;52.316;10.870;2023-06-10T02:35:53;10.20;;;4.75;;
70705;SDS011;59320;52.316;10.870;2023-06-10T02:38:21;9.63;;;5.05;;
70705;SDS011;59320;52.316;10.870;2023-06-10T02:40:49;9.25;;;5.10;;
70705;SDS011;59320;52.316;10.870;2023-06-10T02:43:16;9.57;;;4.78;;
70705;SDS011;59320;52.316;10.870;2023-06-10T02:45:45;8.45;;;4.95;;
70705;SDS011;59320;52.316;10.870;2023-06-10T02:48:12;9.88;;;5.00;;
70705;SDS011;59320;52.316;10.870;2023-06-10T02:50:40;12.52;;;4.72;;
70705;SDS011;59320;52.316;10.870;2023-06-10T02:53:17;7.82;;;4.82;;
70705;SDS011;59320;52.316;10.870;2023-06-10T02:55:49;9.48;;;4.80;;
70705;SDS011;59320;52.316;10.870;2023-06-10T02:58:18;8.98;;;4.40;;
70705;SDS011;59320;52.316;10.870;2023-06-10T03:00:46;8.73;;;4.85;;
70705;SDS011;59320;52.316;10.870;2023-06-10T03:03:14;10.35;;;5.57;;
70705;SDS011;59320;52.316;10.870;2023-06-10T03:05:53;9.20;;;5.13;;
70705;SDS011;59320;52.316;10.870;2023-06-10T03:08:23;11.05;;;5.07;;
70705;SDS011;59320;52.316;10.870;2023-06-10T03:10:50;10.40;;;5.32;;
70705;SDS011;59320;52.316;10.870;2023-06-10T03:13:19;11.13;;;5.45;;
70705;SDS011;59320;52.316;10.870;2023-06-10T03:15:47;9.98;;;5.30;;
70705;SDS011;59320;52.316;10.870;2023-06-10T03:18:17;10.85;;;5.15;;
70705;SDS011;59320;52.316;10.870;2023-06-10T03:20:46;8.60;;;4.40;;
70705;SDS011;59320;52.316;10.870;2023-06-10T03:23:13;7.32;;;4.43;;
70705;SDS011;59320;52.316;10.870;2023-06-10T03:25:42;10.90;;;5.25;;
70705;SDS011;59320;52.316;10.870;2023-06-10T03:28:12;9.93;;;5.38;;
70705;SDS011;59320;52.316;10.870;2023-06-10T03:30:40;9.55;;;4.70;;
70705;SDS011;59320;52.316;10.870;2023-06-10T03:33:09;8.25;;;5.40;;
70705;SDS011;59320;52.316;10.870;2023-06-10T03:35:37;9.35;;;5.35;;
70705;SDS011;59320;52.316;10.870;2023-06-10T03:38:05;8.30;;;4.93;;
70705;SDS011;59320;52.316;10.870;2023-06-10T03:40:32;10.13;;;5.32;;
70705;SDS011;59320;52.316;10.870;2023-06-10T03:43:00;9.45;;;5.57;;
70705;SDS011;59320;52.316;10.870;2023-06-10T03:45:28;11.20;;;5.38;;
70705;SDS011;59320;52.316;10.870;2023-06-10T03:47:56;10.05;;;5.65;;
70705;SDS011;59320;52.316;10.870;2023-06-10T03:50:30;11.85;;;6.30;;
70705;SDS011;59320;52.316;10.870;2023-06-10T03:52:58;8.60;;;6.15;;
70705;SDS011;59320;52.316;10.870;2023-06-10T03:55:26;15.52;;;6.53;;
70705;SDS011;59320;52.316;10.870;2023-06-10T03:57:54;11.63;;;5.65;;
70705;SDS011;59320;52.316;10.870;2023-06-10T04:00:21;11.48;;;5.32;;
70705;SDS011;59320;52.316;10.870;2023-06-10T04:02:48;7.50;;;4.90;;
70705;SDS011;59320;52.316;10.870;2023-06-10T04:05:26;14.50;;;5.15;;
70705;SDS011;59320;52.316;10.870;2023-06-10T04:07:55;10.23;;;5.72;;
70705;SDS011;59320;52.316;10.870;2023-06-10T04:10:22;11.52;;;6.05;;
70705;SDS011;59320;52.316;10.870;2023-06-10T04:12:49;9.27;;;6.25;;
70705;SDS011;59320;52.316;10.870;2023-06-10T04:15:17;11.38;;;5.88;;
70705;SDS011;59320;52.316;10.870;2023-06-10T04:17:45;9.55;;;5.60;;
70705;SDS011;59320;52.316;10.870;2023-06-10T04:20:14;10.18;;;5.50;;
70705;SDS011;59320;52.316;10.870;2023-06-10T04:22:44;11.73;;;5.55;;
70705;SDS011;59320;52.316;10.870;2023-06-10T04:25:12;9.52;;;4.95;;
70705;SDS011;59320;52.316;10.870;2023-06-10T04:27:40;13.38;;;5.40;;
70705;SDS011;59320;52.316;10.870;2023-06-10T04:30:08;10.52;;;5.30;;
70705;SDS011;59320;52.316;10.870;2023-06-10T04:32:37;10.75;;;5.05;;
70705;SDS011;59320;52.316;10.870;2023-06-10T04:35:07;7.28;;;4.88;;
70705;SDS011;59320;52.316;10.870;2023-06-10T04:37:37;10.50;;;5.53;;
70705;SDS011;59320;52.316;10.870;2023-06-10T04:40:05;12.10;;;6.22;;
70705;SDS011;59320;52.316;10.870;2023-06-10T04:42:35;10.35;;;5.78;;
70705;SDS011;59320;52.316;10.870;2023-06-10T04:45:02;10.07;;;5.60;;
70705;SDS011;59320;52.316;10.870;2023-06-10T04:47:29;14.70;;;5.70;;
70705;SDS011;59320;52.316;10.870;2023-06-10T04:49:58;10.65;;;5.75;;
70705;SDS011;59320;52.316;10.870;2023-06-10T04:52:26;8.68;;;5.60;;
70705;SDS011;59320;52.316;10.870;2023-06-10T04:54:53;10.60;;;5.35;;
70705;SDS011;59320;52.316;10.870;2023-06-10T04:57:20;10.70;;;5.57;;
70705;SDS011;59320;52.316;10.870;2023-06-10T04:59:49;12.02;;;5.38;;
70705;SDS011;59320;52.316;10.870;2023-06-10T05:02:16;13.02;;;5.22;;
70705;SDS011;59320;52.316;10.870;2023-06-10T05:04:43;12.38;;;5.60;;
70705;SDS011;59320;52.316;10.870;2023-06-10T05:07:10;9.85;;;5.25;;
70705;SDS011;59320;52.316;10.870;2023-06-10T05:09:37;11.30;;;5.50;;
70705;SDS011;59320;52.316;10.870;2023-06-10T05:12:04;13.73;;;5.63;;
70705;SDS011;59320;52.316;10.870;2023-06-10T05:14:32;12.90;;;5.75;;
70705;SDS011;59320;52.316;10.870;2023-06-10T05:17:00;12.55;;;5.50;;
70705;SDS011;59320;52.316;10.870;2023-06-10T05:19:27;9.50;;;5.50;;
70705;SDS011;59320;52.316;10.870;2023-06-10T05:21:54;9.07;;;5.72;;
70705;SDS011;59320;52.316;10.870;2023-06-10T05:24:21;11.55;;;6.32;;
70705;SDS011;59320;52.316;10.870;2023-06-10T05:26:49;12.38;;;5.05;;
70705;SDS011;59320;52.316;10.870;2023-06-10T05:29:16;10.55;;;5.22;;
70705;SDS011;59320;52.316;10.870;2023-06-10T05:31:43;10.50;;;5.32;;
70705;SDS011;59320;52.316;10.870;2023-06-10T05:34:11;9.60;;;5.05;;
70705;SDS011;59320;52.316;10.870;2023-06-10T05:36:38;9.80;;;5.22;;
70705;SDS011;59320;52.316;10.870;2023-06-10T05:39:05;10.32;;;4.88;;
70705;SDS011;59320;52.316;10.870;2023-06-10T05:41:32;10.15;;;4.80;;
70705;SDS011;59320;52.316;10.870;2023-06-10T05:43:59;11.57;;;5.32;;
70705;SDS011;59320;52.316;10.870;2023-06-10T05:46:26;11.70;;;5.13;;
70705;SDS011;59320;52.316;10.870;2023-06-10T05:48:53;12.98;;;5.38;;
70705;SDS011;59320;52.316;10.870;2023-06-10T05:51:22;14.63;;;5.63;;
70705;SDS011;59320;52.316;10.870;2023-06-10T05:53:49;8.98;;;5.18;;
70705;SDS011;59320;52.316;10.870;2023-06-10T05:56:16;9.95;;;5.25;;
70705;SDS011;59320;52.316;10.870;2023-06-10T05:58:43;10.63;;;5.13;;
70705;SDS011;59320;52.316;10.870;2023-06-10T06:01:10;9.25;;;4.90;;
70705;SDS011;59320;52.316;10.870;2023-06-10T06:03:37;9.45;;;5.72;;
70705;SDS011;59320;52.316;10.870;2023-06-10T06:06:04;10.55;;;5.75;;
70705;SDS011;59320;52.316;10.870;2023-06-10T06:08:33;9.93;;;5.43;;
70705;SDS011;59320;52.316;10.870;2023-06-10T06:11:00;11.73;;;5.47;;
70705;SDS011;59320;52.316;10.870;2023-06-10T06:13:27;10.93;;;5.72;;
70705;SDS011;59320;52.316;10.870;2023-06-10T06:15:54;9.80;;;5.78;;
70705;SDS011;59320;52.316;10.870;2023-06-10T06:18:21;12.75;;;5.78;;
70705;SDS011;59320;52.316;10.870;2023-06-10T06:20:49;14.35;;;6.03;;
70705;SDS011;59320;52.316;10.870;2023-06-10T06:23:16;10.52;;;5.72;;
70705;SDS011;59320;52.316;10.870;2023-06-10T06:25:45;15.35;;;6.03;;
70705;SDS011;59320;52.316;10.870;2023-06-10T06:28:12;9.55;;;5.55;;
70705;SDS011;59320;52.316;10.870;2023-06-10T06:30:39;12.52;;;5.70;;
70705;SDS011;59320;52.316;10.870;2023-06-10T06:33:06;11.57;;;5.95;;
70705;SDS011;59320;52.316;10.870;2023-06-10T06:35:33;17.33;;;6.97;;
70705;SDS011;59320;52.316;10.870;2023-06-10T06:38:00;12.95;;;6.03;;
70705;SDS011;59320;52.316;10.870;2023-06-10T06:40:29;12.00;;;5.63;;
70705;SDS011;59320;52.316;10.870;2023-06-10T06:42:57;12.30;;;6.20;;
70705;SDS011;59320;52.316;10.870;2023-06-10T06:45:43;10.90;;;6.43;;
70705;SDS011;59320;52.316;10.870;2023-06-10T06:48:10;11.32;;;6.03;;
70705;SDS011;59320;52.316;10.870;2023-06-10T06:50:37;9.93;;;6.15;;
70705;SDS011;59320;52.316;10.870;2023-06-10T06:53:07;12.10;;;5.93;;
70705;SDS011;59320;52.316;10.870;2023-06-10T06:55:34;12.07;;;5.78;;
70705;SDS011;59320;52.316;10.870;2023-06-10T06:58:02;9.45;;;6.15;;
70705;SDS011;59320;52.316;10.870;2023-06-10T07:00:29;13.85;;;6.85;;
70705;SDS011;59320;52.316;10.870;2023-06-10T07:02:56;11.93;;;6.18;;
70705;SDS011;59320;52.316;10.870;2023-06-10T07:05:25;11.45;;;6.47;;
70705;SDS011;59320;52.316;10.870;2023-06-10T07:07:52;12.75;;;6.45;;
70705;SDS011;59320;52.316;10.870;2023-06-10T07:10:20;10.80;;;7.00;;
70705;SDS011;59320;52.316;10.870;2023-06-10T07:12:47;15.63;;;7.50;;
70705;SDS011;59320;52.316;10.870;2023-06-10T07:15:16;9.93;;;6.47;;
70705;SDS011;59320;52.316;10.870;2023-06-10T07:17:43;9.77;;;6.38;;
70705;SDS011;59320;52.316;10.870;2023-06-10T07:20:11;11.02;;;7.05;;
70705;SDS011;59320;52.316;10.870;2023-06-10T07:22:40;11.07;;;6.38;;
70705;SDS011;59320;52.316;10.870;2023-06-10T07:25:08;11.45;;;6.60;;
70705;SDS011;59320;52.316;10.870;2023-06-10T07:27:35;13.10;;;6.88;;
70705;SDS011;59320;52.316;10.870;2023-06-10T07:30:03;8.80;;;6.15;;
70705;SDS011;59320;52.316;10.870;2023-06-10T07:32:33;11.85;;;7.68;;
70705;SDS011;59320;52.316;10.870;2023-06-10T07:35:00;13.07;;;7.00;;
70705;SDS011;59320;52.316;10.870;2023-06-10T07:37:28;13.65;;;7.22;;
70705;SDS011;59320;52.316;10.870;2023-06-10T07:39:56;9.25;;;6.25;;
70705;SDS011;59320;52.316;10.870;2023-06-10T07:42:23;11.23;;;7.32;;
70705;SDS011;59320;52.316;10.870;2023-06-10T07:44:50;12.63;;;7.35;;
70705;SDS011;59320;52.316;10.870;2023-06-10T07:47:18;12.30;;;7.20;;
70705;SDS011;59320;52.316;10.870;2023-06-10T07:49:47;11.82;;;7.10;;
70705;SDS011;59320;52.316;10.870;2023-06-10T07:52:14;11.48;;;6.53;;
70705;SDS011;59320;52.316;10.870;2023-06-10T07:54:42;10.07;;;7.03;;
70705;SDS011;59320;52.316;10.870;2023-06-10T07:57:09;12.07;;;7.50;;
70705;SDS011;59320;52.316;10.870;2023-06-10T07:59:37;12.82;;;7.10;;
70705;SDS011;59320;52.316;10.870;2023-06-10T08:02:05;13.50;;;7.32;;
70705;SDS011;59320;52.316;10.870;2023-06-10T08:04:32;11.00;;;6.90;;
70705;SDS011;59320;52.316;10.870;2023-06-10T08:07:02;11.10;;;6.78;;
70705;SDS011;59320;52.316;10.870;2023-06-10T08:09:30;8.00;;;6.18;;
70705;SDS011;59320;52.316;10.870;2023-06-10T08:11:57;8.85;;;6.57;;
70705;SDS011;59320;52.316;10.870;2023-06-10T08:14:25;10.65;;;7.20;;
70705;SDS011;59320;52.316;10.870;2023-06-10T08:16:52;9.57;;;6.43;;
70705;SDS011;59320;52.316;10.870;2023-06-10T08:19:19;11.40;;;7.50;;
70705;SDS011;59320;52.316;10.870;2023-06-10T08:21:46;8.48;;;5.68;;
70705;SDS011;59320;52.316;10.870;2023-06-10T08:24:15;8.98;;;6.57;;
70705;SDS011;59320;52.316;10.870;2023-06-10T08:26:44;12.63;;;6.15;;
70705;SDS011;59320;52.316;10.870;2023-06-10T08:29:11;10.43;;;6.07;;
70705;SDS011;59320;52.316;10.870;2023-06-10T08:31:40;9.32;;;5.57;;
70705;SDS011;59320;52.316;10.870;2023-06-10T08:34:08;10.70;;;6.13;;
70705;SDS011;59320;52.316;10.870;2023-06-10T08:36:35;9.95;;;6.00;;
70705;SDS011;59320;52.316;10.870;2023-06-10T08:39:03;9.50;;;5.80;;
70705;SDS011;59320;52.316;10.870;2023-06-10T08:41:32;12.27;;;6.32;;
70705;SDS011;59320;52.316;10.870;2023-06-10T08:44:04;10.75;;;5.55;;
70705;SDS011;59320;52.316;10.870;2023-06-10T08:46:35;12.63;;;6.32;;
70705;SDS011;59320;52.316;10.870;2023-06-10T08:49:05;12.18;;;6.00;;
70705;SDS011;59320;52.316;10.870;2023-06-10T08:51:34;8.95;;;5.63;;
70705;SDS011;59320;52.316;10.870;2023-06-10T08:54:04;8.20;;;5.40;;
70705;SDS011;59320;52.316;10.870;2023-06-10T08:56:39;9.70;;;6.35;;
70705;SDS011;59320;52.316;10.870;2023-06-10T08:59:07;13.80;;;5.32;;
70705;SDS011;59320;52.316;10.870;2023-06-10T09:01:36;10.93;;;6.03;;
70705;SDS011;59320;52.316;10.870;2023-06-10T09:04:04;10.05;;;6.35;;
70705;SDS011;59320;52.316;10.870;2023-06-10T09:06:32;8.70;;;5.43;;
70705;SDS011;59320;52.316;10.870;2023-06-10T09:09:01;10.82;;;5.50;;
70705;SDS011;59320;52.316;10.870;2023-06-10T09:11:28;10.10;;;5.80;;
70705;SDS011;59320;52.316;10.870;2023-06-10T09:13:57;10.85;;;5.22;;
70705;SDS011;59320;52.316;10.870;2023-06-10T09:16:25;8.43;;;5.30;;
70705;SDS011;59320;52.316;10.870;2023-06-10T09:18:53;9.75;;;5.28;;
70705;SDS011;59320;52.316;10.870;2023-06-10T09:21:21;11.55;;;5.53;;
70705;SDS011;59320;52.316;10.870;2023-06-10T09:23:50;11.77;;;5.72;;
70705;SDS011;59320;52.316;10.870;2023-06-10T09:26:18;10.85;;;5.93;;
70705;SDS011;59320;52.316;10.870;2023-06-10T09:28:47;9.10;;;4.95;;
70705;SDS011;59320;52.316;10.870;2023-06-10T09:31:17;10.07;;;5.85;;
70705;SDS011;59320;52.316;10.870;2023-06-10T09:33:47;6.38;;;5.35;;
70705;SDS011;59320;52.316;10.870;2023-06-10T09:36:21;6.75;;;5.43;;
70705;SDS011;59320;52.316;10.870;2023-06-10T09:38:49;11.52;;;5.05;;
70705;SDS011;59320;52.316;10.870;2023-06-10T09:41:17;10.93;;;5.50;;
70705;SDS011;59320;52.316;10.870;2023-06-10T09:43:44;9.80;;;5.63;;
70705;SDS011;59320;52.316;10.870;2023-06-10T09:46:14;7.43;;;4.97;;
70705;SDS011;59320;52.316;10.870;2023-06-10T09:48:44;9.23;;;5.10;;
70705;SDS011;59320;52.316;10.870;2023-06-10T09:51:12;7.60;;;4.63;;
70705;SDS011;59320;52.316;10.870;2023-06-10T09:53:39;10.23;;;5.57;;
70705;SDS011;59320;52.316;10.870;2023-06-10T09:56:07;13.32;;;6.20;;
70705;SDS011;59320;52.316;10.870;2023-06-10T09:58:35;13.30;;;5.47;;
70705;SDS011;59320;52.316;10.870;2023-06-10T10:01:06;9.60;;;5.15;;
70705;SDS011;59320;52.316;10.870;2023-06-10T10:03:43;10.32;;;5.63;;
70705;SDS011;59320;52.316;10.870;2023-06-10T10:06:12;8.95;;;5.57;;
70705;SDS011;59320;52.316;10.870;2023-06-10T10:08:40;9.40;;;5.47;;
70705;SDS011;59320;52.316;10.870;2023-06-10T10:11:08;9.15;;;4.82;;
70705;SDS011;59320;52.316;10.870;2023-06-10T10:13:36;7.40;;;5.13;;
70705;SDS011;59320;52.316;10.870;2023-06-10T10:16:06;8.25;;;5.18;;
70705;SDS011;59320;52.316;10.870;2023-06-10T10:18:39;9.38;;;5.15;;
70705;SDS011;59320;52.316;10.870;2023-06-10T10:21:11;8.48;;;5.53;;
70705;SDS011;59320;52.316;10.870;2023-06-10T10:23:43;11.05;;;5.60;;
70705;SDS011;59320;52.316;10.870;2023-06-10T10:26:15;8.60;;;5.32;;
70705;SDS011;59320;52.316;10.870;2023-06-10T10:28:45;8.00;;;5.13;;
70705;SDS011;59320;52.316;10.870;2023-06-10T10:31:20;9.05;;;5.25;;
70705;SDS011;59320;52.316;10.870;2023-06-10T10:33:50;9.32;;;5.35;;
70705;SDS011;59320;52.316;10.870;2023-06-10T10:36:25;14.90;;;6.72;;
70705;SDS011;59320;52.316;10.870;2023-06-10T10:38:54;9.05;;;5.53;;
70705;SDS011;59320;52.316;10.870;2023-06-10T10:41:23;7.25;;;5.53;;
70705;SDS011;59320;52.316;10.870;2023-06-10T10:43:52;7.30;;;5.93;;
70705;SDS011;59320;52.316;10.870;2023-06-10T10:46:20;10.15;;;5.85;;
70705;SDS011;59320;52.316;10.870;2023-06-10T10:48:51;10.40;;;6.05;;
70705;SDS011;59320;52.316;10.870;2023-06-10T10:51:20;6.75;;;5.63;;
70705;SDS011;59320;52.316;10.870;2023-06-10T10:56:39;10.38;;;6.47;;
70705;SDS011;59320;52.316;10.870;2023-06-10T10:59:26;8.35;;;6.45;;
70705;SDS011;59320;52.316;10.870;2023-06-10T11:04:44;9.45;;;6.60;;
70705;SDS011;59320;52.316;10.870;2023-06-10T11:07:12;9.27;;;6.28;;
70705;SDS011;59320;52.316;10.870;2023-06-10T11:09:56;6.65;;;5.55;;
70705;SDS011;59320;52.316;10.870;2023-06-10T11:12:26;7.57;;;5.65;;
70705;SDS011;59320;52.316;10.870;2023-06-10T11:15:05;7.47;;;5.68;;
70705;SDS011;59320;52.316;10.870;2023-06-10T11:17:33;10.57;;;6.47;;
70705;SDS011;59320;52.316;10.870;2023-06-10T11:20:00;9.50;;;6.07;;
70705;SDS011;59320;52.316;10.870;2023-06-10T11:22:28;9.82;;;5.95;;
70705;SDS011;59320;52.316;10.870;2023-06-10T11:24:56;7.63;;;5.72;;
70705;SDS011;59320;52.316;10.870;2023-06-10T11:27:24;9.73;;;5.90;;
70705;SDS011;59320;52.316;10.870;2023-06-10T11:29:58;11.15;;;5.82;;
70705;SDS011;59320;52.316;10.870;2023-06-10T11:32:45;9.77;;;5.80;;
70705;SDS011;59320;52.316;10.870;2023-06-10T11:35:18;9.63;;;5.78;;
70705;SDS011;59320;52.316;10.870;2023-06-10T11:37:46;10.60;;;5.40;;
70705;SDS011;59320;52.316;10.870;2023-06-10T11:40:16;6.70;;;5.25;;
70705;SDS011;59320;52.316;10.870;2023-06-10T11:42:43;6.53;;;5.32;;
70705;SDS011;59320;52.316;10.870;2023-06-10T11:45:14;9.75;;;5.35;;
70705;SDS011;59320;52.316;10.870;2023-06-10T11:47:55;6.85;;;5.20;;
70705;SDS011;59320;52.316;10.870;2023-06-10T11:50:30;7.88;;;4.68;;
70705;SDS011;59320;52.316;10.870;2023-06-10T11:52:58;7.53;;;4.68;;
70705;SDS011;59320;52.316;10.870;2023-06-10T11:55:26;6.15;;;4.95;;
70705;SDS011;59320;52.316;10.870;2023-06-10T11:58:11;9.80;;;5.30;;
70705;SDS011;59320;52.316;10.870;2023-06-10T12:00:43;6.38;;;4.82;;
70705;SDS011;59320;52.316;10.870;2023-06-10T12:03:11;6.32;;;5.15;;
70705;SDS011;59320;52.316;10.870;2023-06-10T12:05:39;6.20;;;5.15;;
70705;SDS011;59320;52.316;10.870;2023-06-10T12:08:10;6.80;;;5.07;;
70705;SDS011;59320;52.316;10.870;2023-06-10T12:10:42;8.63;;;5.40;;
70705;SDS011;59320;52.316;10.870;2023-06-10T12:13:09;6.72;;;5.00;;
70705;SDS011;59320;52.316;10.870;2023-06-10T12:15:37;6.80;;;5.10;;
70705;SDS011;59320;52.316;10.870;2023-06-10T12:18:05;6.72;;;5.15;;
70705;SDS011;59320;52.316;10.870;2023-06-10T12:20:32;7.40;;;4.90;;
70705;SDS011;59320;52.316;10.870;2023-06-10T12:23:00;6.45;;;4.45;;
70705;SDS011;59320;52.316;10.870;2023-06-10T12:25:34;9.13;;;5.15;;
70705;SDS011;59320;52.316;10.870;2023-06-10T12:28:05;6.35;;;5.15;;
70705;SDS011;59320;52.316;10.870;2023-06-10T12:30:32;8.18;;;5.47;;
70705;SDS011;59320;52.316;10.870;2023-06-10T12:32:59;7.15;;;5.18;;
70705;SDS011;59320;52.316;10.870;2023-06-10T12:35:27;10.80;;;5.50;;
70705;SDS011;59320;52.316;10.870;2023-06-10T12:37:54;8.85;;;4.97;;
70705;SDS011;59320;52.316;10.870;2023-06-10T12:40:25;5.47;;;4.97;;
70705;SDS011;59320;52.316;10.870;2023-06-10T12:42:53;5.57;;;4.60;;
70705;SDS011;59320;52.316;10.870;2023-06-10T12:45:27;5.50;;;4.68;;
70705;SDS011;59320;52.316;10.870;2023-06-10T12:48:04;7.20;;;4.57;;
70705;SDS011;59320;52.316;10.870;2023-06-10T12:50:32;5.18;;;4.50;;
70705;SDS011;59320;52.316;10.870;2023-06-10T12:52:59;10.23;;;4.85;;
70705;SDS011;59320;52.316;10.870;2023-06-10T12:55:26;7.70;;;5.28;;
70705;SDS011;59320;52.316;10.870;2023-06-10T12:57:54;12.27;;;5.63;;
70705;SDS011;59320;52.316;10.870;2023-06-10T13:00:22;6.60;;;5.40;;
70705;SDS011;59320;52.316;10.870;2023-06-10T13:02:52;6.93;;;5.45;;
70705;SDS011;59320;52.316;10.870;2023-06-10T13:05:19;7.85;;;5.55;;
70705;SDS011;59320;52.316;10.870;2023-06-10T13:07:46;10.40;;;5.57;;
70705;SDS011;59320;52.316;10.870;2023-06-10T13:10:14;6.28;;;4.85;;
70705;SDS011;59320;52.316;10.870;2023-06-10T13:12:41;7.45;;;5.35;;
70705;SDS011;59320;52.316;10.870;2023-06-10T13:15:09;11.98;;;6.00;;
70705;SDS011;59320;52.316;10.870;2023-06-10T13:17:36;6.25;;;5.50;;
70705;SDS011;59320;52.316;10.870;2023-06-10T13:20:06;7.15;;;5.70;;
70705;SDS011;59320;52.316;10.870;2023-06-10T13:22:34;8.50;;;5.22;;
70705;SDS011;59320;52.316;10.870;2023-06-10T13:25:01;6.22;;;4.88;;
70705;SDS011;59320;52.316;10.870;2023-06-10T13:27:29;5.45;;;4.95;;
70705;SDS011;59320;52.316;10.870;2023-06-10T13:29:56;6.68;;;4.57;;
70705;SDS011;59320;52.316;10.870;2023-06-10T13:32:23;5.53;;;4.20;;
70705;SDS011;59320;52.316;10.870;2023-06-10T13:34:50;5.35;;;4.38;;
70705;SDS011;59320;52.316;10.870;2023-06-10T13:37:19;4.93;;;4.53;;
70705;SDS011;59320;52.316;10.870;2023-06-10T13:39:46;5.38;;;4.75;;
70705;SDS011;59320;52.316;10.870;2023-06-10T13:42:15;6.28;;;4.72;;
70705;SDS011;59320;52.316;10.870;2023-06-10T13:44:42;7.03;;;4.60;;
70705;SDS011;59320;52.316;10.870;2023-06-10T13:47:10;5.10;;;4.32;;
70705;SDS011;59320;52.316;10.870;2023-06-10T13:49:37;5.72;;;4.40;;
70705;SDS011;59320;52.316;10.870;2023-06-10T13:52:04;7.93;;;4.70;;
70705;SDS011;59320;52.316;10.870;2023-06-10T13:54:33;5.47;;;4.47;;
70705;SDS011;59320;52.316;10.870;2023-06-10T13:57:02;5.18;;;4.68;;
70705;SDS011;59320;52.316;10.870;2023-06-10T13:59:29;8.02;;;5.03;;
70705;SDS011;59320;52.316;10.870;2023-06-10T14:01:56;7.25;;;4.70;;
70705;SDS011;59320;52.316;10.870;2023-06-10T14:04:23;5.60;;;5.00;;
70705;SDS011;59320;52.316;10.870;2023-06-10T14:06:50;6.32;;;5.65;;
70705;SDS011;59320;52.316;10.870;2023-06-10T14:09:17;5.88;;;4.60;;
70705;SDS011;59320;52.316;10.870;2023-06-10T14:11:46;5.22;;;4.72;;
70705;SDS011;59320;52.316;10.870;2023-06-10T14:14:14;8.77;;;4.85;;
70705;SDS011;59320;52.316;10.870;2023-06-10T14:16:41;5.70;;;5.10;;
70705;SDS011;59320;52.316;10.870;2023-06-10T14:19:08;5.65;;;5.05;;
70705;SDS011;59320;52.316;10.870;2023-06-10T14:21:35;5.88;;;4.75;;
70705;SDS011;59320;52.316;10.870;2023-06-10T14:24:02;6.63;;;5.25;;
70705;SDS011;59320;52.316;10.870;2023-06-10T14:26:29;5.07;;;4.57;;
70705;SDS011;59320;52.316;10.870;2023-06-10T14:28:59;5.03;;;4.53;;
70705;SDS011;59320;52.316;10.870;2023-06-10T14:31:27;6.90;;;4.95;;
70705;SDS011;59320;52.316;10.870;2023-06-10T14:33:54;10.05;;;4.97;;
70705;SDS011;59320;52.316;10.870;2023-06-10T14:36:21;6.20;;;4.78;;
70705;SDS011;59320;52.316;10.870;2023-06-10T14:38:48;6.82;;;4.70;;
70705;SDS011;59320;52.316;10.870;2023-06-10T14:41:16;5.80;;;5.05;;
70705;SDS011;59320;52.316;10.870;2023-06-10T14:43:43;5.70;;;5.20;;